Time;durP1;ratioP1;P1;durP2;ratioP2;P2;SDS_P1;SDS_P2;PMS_P1;PMS_P2;Temp;Humidity;BMP_temperature;BMP_pressure;BME280_temperature;BME280_humidity;BME280_pressure;Samples;Min_cycle;Max_cycle;Signal;HPM_P1;HPM_P2
2022/07/06 00:01:53;;;;;;;2.85;1.08;;;14.00;99.90;;;;;;6249317;22;20456;-87
2022/07/06 00:04:19;;;;;;;3.75;1.17;;;13.90;99.90;;;;;;6249009;22;20004;-86
2022/07/06 00:06:51;;;;;;;1.20;0.80;;;13.90;99.90;;;;;;6224283;22;20322;-86
2022/07/06 00:09:17;;;;;;;2.15;0.85;;;13.80;99.90;;;;;;6250111;22;20022;-87
2022/07/06 00:11:42;;;;;;;3.58;0.95;;;13.90;99.90;;;;;;6222637;22;20015;-87
2022/07/06 00:14:08;;;;;;;1.85;1.00;;;13.80;99.90;;;;;;6250004;22;20015;-87
2022/07/06 00:16:34;;;;;;;4.30;1.38;;;13.80;99.90;;;;;;6224622;22;20440;-86
2022/07/06 00:19:00;;;;;;;3.83;1.00;;;13.90;99.90;;;;;;6223657;22;20051;-87
2022/07/06 00:21:26;;;;;;;1.88;0.82;;;13.90;99.90;;;;;;6222296;22;20049;-87
2022/07/06 00:23:51;;;;;;;3.60;1.13;;;13.80;99.90;;;;;;6222844;22;20057;-88
2022/07/06 00:26:18;;;;;;;2.28;1.00;;;13.90;99.90;;;;;;6223404;22;20455;-87
2022/07/06 00:28:44;;;;;;;4.50;1.00;;;13.90;99.90;;;;;;6247447;22;20047;-88
2022/07/06 00:31:10;;;;;;;4.43;1.08;;;13.90;99.90;;;;;;6272529;22;20047;-87
2022/07/06 00:33:36;;;;;;;3.85;1.40;;;13.90;99.90;;;;;;6250543;22;20008;-90
2022/07/06 00:36:02;;;;;;;2.72;1.10;;;13.70;99.90;;;;;;6249075;22;20018;-88
2022/07/06 00:38:28;;;;;;;4.95;1.55;;;13.90;99.90;;;;;;6247283;22;20086;-84
2022/07/06 00:41:00;;;;;;;1.83;1.02;;;13.90;99.90;;;;;;6222685;22;20012;-87
2022/07/06 00:43:25;;;;;;;3.08;1.10;;;13.90;99.90;;;;;;6250343;22;20012;-88
2022/07/06 00:45:51;;;;;;;2.80;1.00;;;13.30;99.90;;;;;;6250847;22;20099;-87
2022/07/06 00:48:17;;;;;;;2.80;1.10;;;13.90;99.90;;;;;;6223386;22;20448;-88
2022/07/06 00:50:47;;;;;;;3.92;1.30;;;13.90;99.90;;;;;;6251608;22;20015;-87
2022/07/06 00:53:13;;;;;;;3.40;1.02;;;14.00;99.90;;;;;;6252172;22;20352;-86
2022/07/06 00:55:40;;;;;;;3.13;1.20;;;13.90;99.90;;;;;;6248744;22;20019;-87
2022/07/06 00:58:07;;;;;;;3.13;1.00;;;14.00;99.90;;;;;;6251209;22;20064;-89
2022/07/06 01:00:33;;;;;;;8.48;1.70;;;14.00;99.90;;;;;;6249187;22;20011;-89
2022/07/06 01:02:59;;;;;;;2.17;1.10;;;14.00;99.90;;;;;;6224785;22;20027;-87
2022/07/06 01:05:25;;;;;;;3.92;1.25;;;14.00;99.90;;;;;;6248687;22;20008;-87
2022/07/06 01:07:52;;;;;;;4.55;1.50;;;14.00;99.90;;;;;;6247925;22;20015;-87
2022/07/06 01:10:20;;;;;;;3.97;1.38;;;14.00;99.90;;;;;;6273748;22;20336;-86
2022/07/06 01:12:47;;;;;;;5.05;1.60;;;14.00;99.90;;;;;;6248355;22;20019;-88
2022/07/06 01:15:15;;;;;;;3.70;1.42;;;14.00;99.90;;;;;;6275392;22;20016;-87
2022/07/06 01:17:45;;;;;;;4.47;1.58;;;13.90;99.90;;;;;;6250311;22;20012;-87
2022/07/06 01:20:17;;;;;;;3.40;1.55;;;13.90;99.90;;;;;;6227331;22;20046;-89
2022/07/06 01:22:44;;;;;;;5.20;1.40;;;13.80;99.90;;;;;;6248320;22;20403;-87
2022/07/06 01:25:10;;;;;;;3.40;1.48;;;13.80;99.90;;;;;;6197950;22;20090;-86
2022/07/06 01:27:40;;;;;;;2.55;1.23;;;13.80;99.90;;;;;;6247519;22;20392;-86
2022/07/06 01:30:11;;;;;;;3.65;1.40;;;13.80;99.90;;;;;;6247751;22;20336;-87
2022/07/06 01:32:38;;;;;;;3.85;1.35;;;13.80;99.90;;;;;;6247345;22;20011;-88
2022/07/06 01:35:07;;;;;;;2.92;1.42;;;13.70;99.90;;;;;;6222442;22;20026;-86
2022/07/06 01:37:33;;;;;;;2.28;1.25;;;13.80;99.90;;;;;;6222243;22;20012;-87
2022/07/06 01:40:00;;;;;;;3.33;1.10;;;13.80;99.90;;;;;;6248539;22;20019;-87
2022/07/06 01:42:31;;;;;;;6.10;1.25;;;13.80;99.90;;;;;;6248276;22;20014;-87
2022/07/06 01:44:57;;;;;;;4.70;1.63;;;13.80;99.90;;;;;;6246643;22;20007;-85
2022/07/06 01:47:23;;;;;;;5.03;1.70;;;13.80;99.90;;;;;;6247910;22;20091;-86
2022/07/06 01:49:57;;;;;;;5.20;1.30;;;13.80;99.90;;;;;;6246338;22;20051;-87
2022/07/06 01:52:27;;;;;;;4.28;1.35;;;13.80;99.90;;;;;;6247218;22;20394;-87
2022/07/06 01:54:55;;;;;;;3.28;1.33;;;13.90;99.90;;;;;;6245611;22;20070;-87
2022/07/06 01:57:20;;;;;;;2.97;1.27;;;13.90;99.90;;;;;;6245864;22;20376;-86
2022/07/06 01:59:58;;;;;;;2.33;1.02;;;13.90;99.90;;;;;;6248523;22;20011;-88
2022/07/06 02:02:24;;;;;;;2.88;1.00;;;13.80;99.90;;;;;;6221157;22;20348;-89
2022/07/06 02:07:45;;;;;;;2.67;1.10;;;13.80;99.90;;;;;;6229457;22;20051;-88
2022/07/06 02:10:25;;;;;;;3.38;0.88;;;13.80;99.90;;;;;;6246859;22;20012;-88
2022/07/06 02:12:51;;;;;;;3.38;1.20;;;13.80;99.90;;;;;;6247143;22;20102;-86
2022/07/06 02:15:17;;;;;;;3.78;0.93;;;13.80;99.90;;;;;;6244606;22;20355;-89
2022/07/06 02:17:54;;;;;;;2.97;1.05;;;13.90;99.90;;;;;;6220883;22;20012;-90
2022/07/06 02:21:02;;;;;;;2.88;1.17;;;13.90;99.90;;;;;;6243939;22;20047;-87
2022/07/06 02:23:44;;;;;;;3.88;0.90;;;13.90;99.90;;;;;;6244431;22;20014;-88
2022/07/06 02:26:16;;;;;;;2.90;0.88;;;13.60;99.90;;;;;;6220424;22;20012;-86
2022/07/06 02:28:42;;;;;;;4.30;1.35;;;13.80;99.90;;;;;;6218367;22;20019;-89
2022/07/06 02:31:12;;;;;;;4.90;1.10;;;13.80;99.90;;;;;;6246155;22;20022;-87
2022/07/06 02:33:41;;;;;;;2.90;1.10;;;13.70;99.90;;;;;;6246702;22;20021;-87
2022/07/06 02:36:14;;;;;;;2.92;1.10;;;13.60;99.90;;;;;;6248860;22;20094;-88
2022/07/06 02:38:59;;;;;;;2.88;1.08;;;12.70;99.90;;;;;;6249509;22;20019;-88
2022/07/06 02:41:25;;;;;;;2.33;0.95;;;13.40;99.90;;;;;;6223026;22;20045;-88
2022/07/06 02:43:51;;;;;;;4.85;0.93;;;13.40;99.90;;;;;;6273143;22;20016;-87
2022/07/06 02:46:19;;;;;;;3.38;1.10;;;13.40;99.90;;;;;;6223872;22;20026;-88
2022/07/06 02:48:48;;;;;;;5.43;1.10;;;13.20;99.90;;;;;;6247184;22;20011;-88
2022/07/06 02:51:14;;;;;;;3.55;0.88;;;13.30;99.90;;;;;;6246705;22;20011;-86
2022/07/06 02:53:39;;;;;;;2.33;1.00;;;13.30;99.90;;;;;;6247604;22;20551;-87
2022/07/06 02:56:05;;;;;;;3.40;1.33;;;13.20;99.90;;;;;;6221599;22;20624;-87
2022/07/06 02:58:31;;;;;;;3.65;1.25;;;13.20;99.90;;;;;;6246305;22;20016;-88
2022/07/06 03:01:06;;;;;;;3.35;1.13;;;13.20;99.90;;;;;;6251605;22;20015;-87
2022/07/06 03:03:43;;;;;;;5.90;1.50;;;13.20;99.90;;;;;;6249499;22;20019;-87
2022/07/06 03:06:09;;;;;;;2.88;1.10;;;12.80;99.90;;;;;;6222309;22;20069;-87
2022/07/06 03:08:34;;;;;;;2.60;1.65;;;13.20;99.90;;;;;;6221724;22;20023;-88
2022/07/06 03:11:00;;;;;;;3.65;1.63;;;13.10;99.90;;;;;;6222035;22;20015;-88
2022/07/06 03:13:28;;;;;;;5.20;1.55;;;13.10;99.90;;;;;;6248087;22;20019;-90
2022/07/06 03:15:54;;;;;;;4.55;0.98;;;13.10;99.90;;;;;;6223627;22;20450;-86
2022/07/06 03:18:19;;;;;;;2.90;1.23;;;13.00;99.90;;;;;;6272940;22;20043;-87
2022/07/06 03:20:52;;;;;;;2.33;1.00;;;12.90;99.90;;;;;;6222865;22;20012;-89
2022/07/06 03:23:24;;;;;;;7.20;1.58;;;13.00;99.90;;;;;;6246488;22;20320;-87
2022/07/06 03:26:08;;;;;;;1.55;1.00;;;12.90;99.90;;;;;;6248115;22;20012;-88
2022/07/06 03:28:39;;;;;;;4.78;1.30;;;12.10;99.90;;;;;;6248975;22;20016;-87
2022/07/06 03:31:08;;;;;;;1.67;0.95;;;12.90;99.90;;;;;;6248543;22;20444;-87
2022/07/06 03:33:36;;;;;;;2.67;1.35;;;12.90;99.90;;;;;;6245697;22;20103;-87
2022/07/06 03:36:02;;;;;;;6.07;1.58;;;12.80;99.90;;;;;;6247902;22;20100;-88
2022/07/06 03:38:28;;;;;;;4.50;1.50;;;12.90;99.90;;;;;;6222696;22;20019;-86
2022/07/06 03:40:56;;;;;;;5.75;1.80;;;12.90;99.90;;;;;;6223803;22;20008;-87
2022/07/06 03:43:22;;;;;;;4.40;1.50;;;12.80;99.90;;;;;;6247651;22;20015;-87
2022/07/06 03:45:51;;;;;;;12.27;2.78;;;12.80;99.90;;;;;;6248881;22;20439;-88
2022/07/06 03:48:20;;;;;;;17.25;2.83;;;12.70;99.90;;;;;;6248413;22;20015;-87
2022/07/06 03:50:45;;;;;;;4.65;2.40;;;12.70;99.90;;;;;;6248613;22;20015;-88
2022/07/06 03:53:11;;;;;;;13.18;2.35;;;12.60;99.90;;;;;;6247517;22;20048;-89
2022/07/06 03:55:40;;;;;;;6.38;2.30;;;11.70;99.90;;;;;;6222986;22;20051;-89
2022/07/06 03:58:11;;;;;;;4.97;2.15;;;12.60;99.90;;;;;;6247373;22;20016;-86
2022/07/06 04:00:40;;;;;;;6.97;1.98;;;12.60;99.90;;;;;;6242845;22;20015;-87
2022/07/06 04:03:09;;;;;;;3.72;1.55;;;12.70;99.90;;;;;;6246153;22;20440;-86
2022/07/06 04:05:35;;;;;;;3.55;1.63;;;12.60;99.90;;;;;;6223078;22;20012;-86
2022/07/06 04:08:00;;;;;;;5.80;2.10;;;12.60;99.90;;;;;;6221370;22;20016;-86
2022/07/06 04:10:35;;;;;;;5.20;1.70;;;12.60;99.90;;;;;;6247221;22;20023;-87
2022/07/06 04:13:01;;;;;;;4.07;1.90;;;12.50;99.90;;;;;;6244178;22;20024;-89
2022/07/06 04:15:27;;;;;;;3.90;1.92;;;12.50;99.90;;;;;;6249041;22;20144;-88
2022/07/06 04:17:59;;;;;;;3.35;1.58;;;12.50;99.90;;;;;;6247802;22;20442;-87
2022/07/06 04:20:30;;;;;;;;;;;12.60;99.90;;;;;;6223513;22;20008;-88
2022/07/06 04:23:11;;;;;;;5.97;1.77;;;12.60;99.90;;;;;;6248850;22;19911;-87
2022/07/06 04:25:39;;;;;;;4.75;1.73;;;12.70;99.90;;;;;;6249058;22;20864;-89
2022/07/06 04:28:08;;;;;;;6.20;2.38;;;12.70;99.90;;;;;;6248542;22;20016;-88
2022/07/06 04:30:43;;;;;;;8.82;2.63;;;12.80;99.90;;;;;;6222806;22;20015;-88
2022/07/06 04:33:20;;;;;;;5.97;2.50;;;12.80;99.90;;;;;;6224616;22;20379;-88
2022/07/06 04:35:48;;;;;;;3.80;1.90;;;13.00;99.90;;;;;;6248883;22;20088;-86
2022/07/06 04:41:24;;;;;;;5.50;1.60;;;13.00;99.90;;;;;;6263736;22;20016;-89
2022/07/06 04:43:52;;;;;;;3.60;1.60;;;13.00;99.90;;;;;;6223473;22;20015;-89
2022/07/06 04:46:19;;;;;;;3.25;1.65;;;13.00;99.90;;;;;;6224815;22;20018;-89
2022/07/06 04:48:46;;;;;;;4.15;1.42;;;13.10;99.90;;;;;;6222912;22;20051;-88
2022/07/06 04:51:14;;;;;;;6.18;1.30;;;13.40;99.90;;;;;;6248157;22;20093;-87
2022/07/06 04:53:41;;;;;;;3.88;1.02;;;13.20;99.90;;;;;;6272594;22;20015;-89
2022/07/06 04:56:13;;;;;;;3.63;1.10;;;13.20;99.90;;;;;;6250895;22;20012;-86
2022/07/06 04:58:47;;;;;;;1.65;0.73;;;13.20;99.90;;;;;;6224934;22;20042;-88
2022/07/06 05:01:30;;;;;;;6.07;1.53;;;13.20;99.90;;;;;;6225316;22;20016;-88
2022/07/06 05:03:56;;;;;;;1.77;0.70;;;13.20;99.90;;;;;;6202003;22;20242;-90
2022/07/06 05:06:31;;;;;;;2.33;0.70;;;13.20;99.90;;;;;;6226642;22;20008;-86
2022/07/06 05:09:09;;;;;;;3.50;0.70;;;13.20;99.90;;;;;;6226722;22;20022;-90
2022/07/06 05:11:37;;;;;;;;;;;13.20;99.90;;;;;;6250490;22;20455;-89
2022/07/06 05:14:03;;;;;;;2.40;1.23;;;13.30;99.90;;;;;;6224111;22;19911;-87
2022/07/06 05:16:41;;;;;;;2.08;0.80;;;13.30;99.90;;;;;;6247397;22;20428;-87
2022/07/06 05:19:16;;;;;;;2.55;0.77;;;13.40;99.90;;;;;;6250640;22;20077;-89
2022/07/06 05:21:50;;;;;;;2.10;0.82;;;13.50;99.90;;;;;;6248168;22;20509;-89
2022/07/06 05:24:20;;;;;;;4.38;1.10;;;13.70;99.90;;;;;;6246014;22;20012;-87
2022/07/06 05:26:52;;;;;;;3.67;1.42;;;13.80;99.90;;;;;;6248304;22;20015;-89
2022/07/06 05:29:26;;;;;;;1.27;0.80;;;12.90;99.90;;;;;;6248212;22;20012;-88
2022/07/06 05:32:01;;;;;;;3.65;0.80;;;14.00;99.90;;;;;;6224602;22;20011;-88
2022/07/06 05:34:40;;;;;;;2.22;0.75;;;14.00;99.90;;;;;;6272659;22;20011;-88
2022/07/06 05:37:09;;;;;;;4.10;0.90;;;14.10;99.90;;;;;;6222955;22;20016;-88
2022/07/06 05:39:43;;;;;;;2.22;0.80;;;14.20;99.90;;;;;;6220930;22;20060;-89
2022/07/06 05:42:20;;;;;;;0.70;0.60;;;14.30;99.90;;;;;;6247298;22;20070;-87
2022/07/06 05:45:22;;;;;;;2.55;0.85;;;14.50;99.90;;;;;;6247813;22;20069;-87
2022/07/06 05:51:13;;;;;;;2.70;0.95;;;14.60;99.90;;;;;;6273803;22;20042;-91
2022/07/06 05:53:44;;;;;;;2.90;0.98;;;14.70;99.90;;;;;;6247052;22;20016;-89
2022/07/06 05:56:10;;;;;;;3.53;0.82;;;14.80;99.90;;;;;;6222162;22;20012;-89
2022/07/06 05:58:43;;;;;;;4.07;0.70;;;15.00;99.90;;;;;;6246827;22;20451;-87
2022/07/06 06:01:16;;;;;;;4.47;1.00;;;15.00;99.90;;;;;;6254803;22;20099;-90
2022/07/06 06:07:46;;;;;;;3.08;0.93;;;14.90;99.90;;;;;;6288352;22;20022;-88
2022/07/06 06:10:16;;;;;;;6.75;1.17;;;14.90;99.90;;;;;;6178872;22;20015;-86
2022/07/06 06:12:46;;;;;;;4.38;1.20;;;15.10;99.90;;;;;;6279304;22;20068;-88
2022/07/06 06:15:49;;;;;;;2.75;1.05;;;14.80;99.90;;;;;;6191982;23;20026;-89
2022/07/06 06:44:26;;;;;;;2.30;0.90;;;14.70;99.90;;;;;;5937664;24;20116;-88
2022/07/06 06:51:07;;;;;;;4.27;0.90;;;14.80;99.90;;;;;;6089661;23;20029;-87
2022/07/06 06:53:57;;;;;;;3.28;0.95;;;15.40;99.90;;;;;;6126424;23;20241;-89
2022/07/06 06:56:42;;;;;;;2.30;1.00;;;15.50;99.90;;;;;;6126252;23;20014;-88
2022/07/06 06:59:10;;;;;;;5.47;0.80;;;15.60;99.90;;;;;;6150940;23;20130;-89
2022/07/06 07:02:25;;;;;;;;;;;;;;;;;;;;;
2022/07/06 07:05:58;;;;;;;5.53;0.82;;;15.80;99.90;;;;;;6132593;23;20047;-90
2022/07/06 07:08:30;;;;;;;3.28;0.70;;;16.20;99.90;;;;;;6075632;23;20809;-89
2022/07/06 07:10:59;;;;;;;2.55;0.77;;;16.60;99.90;;;;;;6127097;23;20017;-89
2022/07/06 07:13:27;;;;;;;3.35;0.80;;;17.00;99.90;;;;;;6103217;23;20146;-88
2022/07/06 07:16:15;;;;;;;3.22;0.77;;;17.40;99.90;;;;;;6218549;23;20016;-90
2022/07/06 07:22:12;;;;;;;2.22;0.75;;;17.30;99.90;;;;;;6245321;22;20476;-89
2022/07/06 07:25:05;;;;;;;3.17;0.95;;;17.20;99.90;;;;;;6224645;22;20012;-87
2022/07/06 07:27:40;;;;;;;6.07;1.10;;;16.80;99.90;;;;;;6225033;22;20106;-88
2022/07/06 07:30:06;;;;;;;;;;;16.80;99.90;;;;;;6247247;22;20019;-89
2022/07/06 07:32:34;;;;;;;2.92;0.90;;;16.90;99.90;;;;;;6247529;22;19918;-89
2022/07/06 07:35:04;;;;;;;3.53;0.95;;;16.90;99.90;;;;;;6221617;22;20437;-88
2022/07/06 07:37:29;;;;;;;1.92;0.60;;;17.20;99.90;;;;;;6248053;22;20087;-87
2022/07/06 07:39:58;;;;;;;3.92;1.02;;;17.40;99.90;;;;;;6222974;22;20050;-88
2022/07/06 07:42:33;;;;;;;2.80;0.80;;;17.00;99.90;;;;;;6222867;22;20433;-87
2022/07/06 07:45:11;;;;;;;4.65;0.90;;;16.90;99.90;;;;;;6220138;22;20011;-90
2022/07/06 07:47:38;;;;;;;3.75;0.80;;;16.80;99.90;;;;;;6224294;22;20022;-89
2022/07/06 07:50:05;;;;;;;3.25;0.80;;;16.60;99.90;;;;;;6199144;22;20084;-88
2022/07/06 07:52:31;;;;;;;4.05;1.10;;;16.70;99.90;;;;;;6223752;22;20380;-90
2022/07/06 07:55:02;;;;;;;2.25;0.82;;;16.60;99.90;;;;;;6223991;22;20023;-89
2022/07/06 08:00:47;;;;;;;1.60;0.60;;;16.70;99.90;;;;;;6190990;23;20016;-91
2022/07/06 08:03:26;;;;;;;;;;;;;;;;;;;;;
2022/07/06 08:06:13;;;;;;;4.63;0.85;;;17.40;99.90;;;;;;6201408;23;20144;-90
2022/07/06 08:08:39;;;;;;;3.13;0.80;;;17.50;99.90;;;;;;6214887;23;20036;-90
2022/07/06 08:11:05;;;;;;;3.80;0.60;;;17.30;99.90;;;;;;6190463;23;20091;-91
2022/07/06 08:13:31;;;;;;;2.03;0.52;;;17.10;99.90;;;;;;6166775;23;20149;-90
2022/07/06 08:16:16;;;;;;;2.92;0.70;;;17.30;99.90;;;;;;6104226;23;20010;-90
2022/07/06 08:18:47;;;;;;;1.40;0.60;;;17.20;99.90;;;;;;6100979;23;20073;-89
2022/07/06 08:21:31;;;;;;;2.00;0.70;;;17.20;99.90;;;;;;6131767;23;20066;-90
2022/07/06 08:23:59;;;;;;;2.58;0.60;;;17.50;99.90;;;;;;6186993;23;20013;-91
2022/07/06 08:26:25;;;;;;;1.73;0.68;;;17.60;99.90;;;;;;6187512;23;20020;-88
2022/07/06 08:28:52;;;;;;;3.03;0.70;;;17.50;99.90;;;;;;6186752;23;20055;-89
2022/07/06 08:31:23;;;;;;;2.63;0.82;;;17.30;99.90;;;;;;6215098;22;20034;-89
2022/07/06 08:33:49;;;;;;;1.35;0.63;;;17.30;99.90;;;;;;6250191;22;20016;-88
2022/07/06 08:36:18;;;;;;;2.25;0.70;;;17.40;99.90;;;;;;6200105;22;20022;-91
2022/07/06 08:38:43;;;;;;;1.92;0.50;;;17.60;99.90;;;;;;6199511;22;20072;-89
2022/07/06 08:41:11;;;;;;;1.60;0.50;;;17.90;99.90;;;;;;6200366;22;20086;-90
2022/07/06 08:43:39;;;;;;;1.05;0.55;;;18.00;99.90;;;;;;6197748;22;20417;-89
2022/07/06 08:46:06;;;;;;;1.67;0.65;;;18.10;99.90;;;;;;6200100;22;20012;-91
2022/07/06 08:48:37;;;;;;;1.95;0.60;;;18.20;99.90;;;;;;6223792;22;20463;-89
2022/07/06 08:51:04;;;;;;;1.25;0.50;;;18.00;99.90;;;;;;6224535;22;20026;-89
2022/07/06 08:53:30;;;;;;;1.83;0.82;;;18.00;99.90;;;;;;6223949;22;20018;-90
2022/07/06 08:55:57;;;;;;;2.80;0.68;;;18.10;99.90;;;;;;6225326;22;20109;-89
2022/07/06 08:58:29;;;;;;;4.18;0.82;;;18.00;99.90;;;;;;6195103;22;20012;-89
2022/07/06 09:01:01;;;;;;;1.58;0.50;;;18.00;99.90;;;;;;6224097;22;20462;-88
2022/07/06 09:03:51;;;;;;;2.03;0.68;;;18.00;99.90;;;;;;6229614;22;20080;-86
2022/07/06 09:06:29;;;;;;;6.65;0.75;;;18.20;99.90;;;;;;6280023;22;20011;-88
2022/07/06 09:09:02;;;;;;;1.90;0.43;;;18.30;99.90;;;;;;6253594;22;20027;-88
2022/07/06 09:12:06;;;;;;;1.98;0.60;;;18.70;99.90;;;;;;6257055;22;20018;-89
2022/07/06 09:14:34;;;;;;;;;;;18.70;99.90;;;;;;6254938;22;20370;-88
2022/07/06 09:17:07;;;;;;;3.45;0.85;;;18.70;99.90;;;;;;6253825;22;20368;-86
2022/07/06 09:19:39;;;;;;;1.60;0.57;;;18.50;99.90;;;;;;6253181;22;20086;-88
2022/07/06 09:22:05;;;;;;;2.25;0.70;;;18.80;99.90;;;;;;6228002;22;20098;-87
2022/07/06 09:24:41;;;;;;;2.67;0.63;;;18.80;99.90;;;;;;6258048;22;20043;-88
2022/07/06 09:27:25;;;;;;;1.92;0.60;;;18.90;99.90;;;;;;6254475;22;20011;-90
2022/07/06 09:29:53;;;;;;;1.80;0.60;;;18.60;99.90;;;;;;6254361;22;20019;-85
2022/07/06 09:32:22;;;;;;;3.10;0.68;;;18.70;99.90;;;;;;6253392;22;20137;-89
2022/07/06 09:34:51;;;;;;;1.90;0.50;;;19.50;99.90;;;;;;6254946;22;20019;-87
2022/07/06 09:37:23;;;;;;;1.65;0.80;;;19.50;99.90;;;;;;6228274;22;20011;-89
2022/07/06 09:39:55;;;;;;;2.60;0.60;;;18.60;99.90;;;;;;6283372;22;20007;-87
2022/07/06 09:42:36;;;;;;;2.67;0.80;;;18.30;99.90;;;;;;6234082;22;20007;-87
2022/07/06 09:45:05;;;;;;;2.38;0.88;;;18.30;99.90;;;;;;6227930;22;20018;-90
2022/07/06 09:47:37;;;;;;;1.95;0.70;;;18.00;99.90;;;;;;6253349;22;20452;-90
2022/07/06 09:50:09;;;;;;;4.55;0.90;;;17.70;99.90;;;;;;6231714;22;20044;-89
2022/07/06 09:52:37;;;;;;;2.08;0.60;;;17.90;99.90;;;;;;6254745;22;20019;-88
2022/07/06 09:55:15;;;;;;;0.98;0.52;;;18.70;99.90;;;;;;6229273;22;20022;-90
2022/07/06 09:57:53;;;;;;;2.47;0.70;;;19.60;99.90;;;;;;6256279;22;20448;-90
2022/07/06 10:00:26;;;;;;;4.05;0.80;;;19.90;99.90;;;;;;6279301;22;20305;-87
2022/07/06 10:02:53;;;;;;;2.53;0.77;;;19.30;99.90;;;;;;6245109;22;20132;-89
2022/07/06 10:05:34;;;;;;;2.78;0.60;;;19.10;99.90;;;;;;6276111;22;20016;-88
2022/07/06 10:08:05;;;;;;;2.60;0.60;;;19.10;99.90;;;;;;6249611;22;20011;-90
2022/07/06 10:10:32;;;;;;;2.42;0.90;;;19.10;99.90;;;;;;6201236;22;20011;-92
2022/07/06 10:13:08;;;;;;;1.55;0.60;;;19.00;99.90;;;;;;6224470;22;20015;-92
2022/07/06 10:19:09;;;;;;;3.20;0.80;;;18.10;99.90;;;;;;6202476;23;20156;-92
2022/07/06 10:21:56;;;;;;;1.48;0.70;;;18.30;99.90;;;;;;6236874;22;20428;-88
2022/07/06 10:24:27;;;;;;;4.07;0.90;;;19.00;99.90;;;;;;6249424;22;20016;-89
2022/07/06 10:26:56;;;;;;;3.25;0.70;;;18.90;99.90;;;;;;6249552;22;20069;-88
2022/07/06 10:29:28;;;;;;;5.43;0.70;;;19.00;99.90;;;;;;6249605;22;20069;-92
2022/07/06 10:31:54;;;;;;;1.88;0.73;;;19.10;99.90;;;;;;6250356;22;20016;-86
2022/07/06 10:34:21;;;;;;;1.40;0.70;;;19.40;99.90;;;;;;6199877;22;20016;-87
2022/07/06 10:37:20;;;;;;;1.05;0.75;;;19.10;99.90;;;;;;6250527;22;20094;-89
2022/07/06 10:43:01;;;;;;;5.40;0.82;;;20.10;99.90;;;;;;6273202;22;20099;-89
2022/07/06 10:45:27;;;;;;;1.73;0.70;;;20.30;99.90;;;;;;6223098;22;20011;-88
2022/07/06 10:48:17;;;;;;;2.28;0.88;;;20.60;99.90;;;;;;6248148;22;20057;-88
2022/07/06 10:50:54;;;;;;;2.88;0.90;;;21.10;99.90;;;;;;6250882;22;20094;-91
2022/07/06 10:53:27;;;;;;;1.48;0.52;;;21.50;99.90;;;;;;6249182;22;20020;-87
2022/07/06 10:55:57;;;;;;;4.10;1.25;;;21.80;99.90;;;;;;6222908;22;20016;-87
2022/07/06 10:58:46;;;;;;;2.35;0.90;;;22.00;99.90;;;;;;6248593;22;20015;-92
2022/07/06 11:01:16;;;;;;;3.70;1.05;;;21.50;99.90;;;;;;6250252;22;20050;-88
2022/07/06 11:03:52;;;;;;;2.58;0.90;;;21.30;99.90;;;;;;6248705;22;20071;-91
2022/07/06 11:06:23;;;;;;;4.43;0.77;;;21.20;99.90;;;;;;6225813;22;20020;-86
2022/07/06 11:09:00;;;;;;;1.88;0.80;;;21.70;99.90;;;;;;6248113;22;20015;-92
2022/07/06 11:11:44;;;;;;;1.45;0.73;;;21.30;99.90;;;;;;6223912;22;20086;-89
2022/07/06 11:14:15;;;;;;;2.65;0.80;;;21.30;99.90;;;;;;6248872;22;20007;-88
2022/07/06 11:16:47;;;;;;;1.05;0.65;;;20.50;99.90;;;;;;6248610;22;20480;-89
2022/07/06 11:19:23;;;;;;;3.70;0.70;;;20.70;99.90;;;;;;6248758;22;20016;-89
2022/07/06 11:22:20;;;;;;;1.80;0.70;;;20.50;99.90;;;;;;6249407;22;20054;-90
2022/07/06 11:24:47;;;;;;;3.13;0.70;;;20.00;99.90;;;;;;6226923;22;20008;-91
2022/07/06 11:27:16;;;;;;;1.52;0.70;;;20.00;99.90;;;;;;6251644;22;20027;-91
2022/07/06 11:29:47;;;;;;;2.35;0.95;;;19.90;99.90;;;;;;6225473;22;20016;-90
2022/07/06 11:32:22;;;;;;;0.93;0.60;;;20.30;99.90;;;;;;6248359;22;20093;-90
2022/07/06 11:34:48;;;;;;;2.20;0.75;;;21.00;99.90;;;;;;6250799;22;20336;-89
2022/07/06 11:37:20;;;;;;;2.05;0.70;;;20.70;99.90;;;;;;6222416;22;20085;-89
2022/07/06 11:39:49;;;;;;;2.65;0.75;;;21.20;99.90;;;;;;6274498;22;20318;-87
2022/07/06 11:42:17;;;;;;;2.63;0.82;;;20.60;99.90;;;;;;6197594;22;20149;-88
2022/07/06 11:44:44;;;;;;;2.97;0.93;;;20.70;99.90;;;;;;6247835;22;20028;-88
2022/07/06 11:47:11;;;;;;;5.47;0.85;;;20.40;99.90;;;;;;6247691;22;20018;-88
2022/07/06 11:49:41;;;;;;;2.40;0.80;;;20.50;99.90;;;;;;6247986;22;20016;-89
2022/07/06 11:52:14;;;;;;;1.98;0.70;;;20.90;99.90;;;;;;6248121;22;20015;-89
2022/07/06 11:54:41;;;;;;;2.75;0.77;;;21.50;99.90;;;;;;6248193;22;20011;-90
2022/07/06 11:57:11;;;;;;;3.15;0.73;;;21.80;99.90;;;;;;6248317;22;20050;-87
2022/07/06 11:59:39;;;;;;;2.72;0.88;;;22.20;99.90;;;;;;6222498;22;20386;-88
2022/07/06 12:02:15;;;;;;;2.78;1.27;;;22.80;99.90;;;;;;6254626;22;20014;-89
2022/07/06 12:04:46;;;;;;;3.22;1.10;;;22.60;99.90;;;;;;6254828;22;20015;-87
2022/07/06 12:07:18;;;;;;;3.25;1.10;;;22.30;99.90;;;;;;6252531;22;20285;-89
2022/07/06 12:09:45;;;;;;;2.83;1.05;;;21.50;99.90;;;;;;6252607;22;20070;-88
2022/07/06 12:12:12;;;;;;;1.90;0.70;;;21.50;99.90;;;;;;6252367;22;20111;-88
2022/07/06 12:14:47;;;;;;;2.30;1.00;;;21.70;99.90;;;;;;6252545;22;20019;-88
2022/07/06 12:17:15;;;;;;;2.28;0.70;;;21.80;99.90;;;;;;6253296;22;20068;-89
2022/07/06 12:19:44;;;;;;;2.58;0.90;;;22.40;99.90;;;;;;6252933;22;20015;-87
2022/07/06 12:22:10;;;;;;;2.55;1.23;;;22.40;99.90;;;;;;6252425;22;20512;-88
2022/07/06 12:24:43;;;;;;;1.88;0.98;;;22.10;99.90;;;;;;6251939;22;20043;-89
2022/07/06 12:27:16;;;;;;;3.55;1.13;;;22.40;99.90;;;;;;6277568;22;20015;-89
2022/07/06 12:29:42;;;;;;;3.33;0.95;;;22.40;99.90;;;;;;6277675;22;20435;-88
2022/07/06 12:32:18;;;;;;;2.40;0.80;;;22.20;99.90;;;;;;6252349;22;20026;-87
2022/07/06 12:34:44;;;;;;;2.95;0.82;;;22.20;99.90;;;;;;6254444;22;20500;-87
2022/07/06 12:37:11;;;;;;;2.08;0.88;;;21.90;99.90;;;;;;6229528;22;20098;-87
2022/07/06 12:39:42;;;;;;;3.42;1.00;;;21.50;99.90;;;;;;6254045;22;20022;-87
2022/07/06 12:42:08;;;;;;;4.90;1.08;;;21.60;99.90;;;;;;6228209;22;20033;-89
2022/07/06 12:44:45;;;;;;;1.38;0.68;;;21.40;99.90;;;;;;6254180;22;20043;-89
2022/07/06 12:47:12;;;;;;;1.95;0.80;;;21.40;99.90;;;;;;6253727;22;20033;-89
2022/07/06 12:49:39;;;;;;;2.25;0.80;;;21.20;99.90;;;;;;6254631;22;20015;-87
2022/07/06 12:52:09;;;;;;;1.67;0.80;;;21.30;99.90;;;;;;6253863;22;20770;-88
2022/07/06 12:54:40;;;;;;;2.00;0.95;;;21.30;99.90;;;;;;6253384;22;20016;-89
2022/07/06 12:57:23;;;;;;;3.15;0.90;;;21.60;99.90;;;;;;6250223;22;20015;-87
2022/07/06 12:59:52;;;;;;;3.03;0.85;;;21.60;99.90;;;;;;6253969;22;20019;-88
2022/07/06 13:02:31;;;;;;;1.45;0.70;;;21.50;99.90;;;;;;6253459;22;20058;-87
2022/07/06 13:05:09;;;;;;;2.00;0.82;;;21.20;99.90;;;;;;6279594;22;20060;-87
2022/07/06 13:07:37;;;;;;;3.50;0.98;;;20.90;99.90;;;;;;6253325;22;20054;-88
2022/07/06 13:10:04;;;;;;;2.88;0.80;;;20.70;99.90;;;;;;6252916;22;20022;-90
2022/07/06 13:12:31;;;;;;;5.63;1.02;;;20.50;99.90;;;;;;6254040;22;20018;-87
2022/07/06 13:14:58;;;;;;;2.42;0.90;;;20.30;99.90;;;;;;6254060;22;20011;-89
2022/07/06 13:17:23;;;;;;;3.05;0.90;;;20.20;99.90;;;;;;6278208;22;20030;-88
2022/07/06 13:19:49;;;;;;;2.35;0.90;;;20.20;99.90;;;;;;6254262;22;20003;-88
2022/07/06 13:22:16;;;;;;;2.70;0.90;;;20.40;99.90;;;;;;6228992;22;20396;-88
2022/07/06 13:24:42;;;;;;;2.15;1.00;;;20.70;99.90;;;;;;6229005;22;20018;-87
2022/07/06 13:27:08;;;;;;;4.72;0.93;;;20.70;99.90;;;;;;6227598;22;20366;-88
2022/07/06 13:29:34;;;;;;;3.90;1.15;;;20.90;99.90;;;;;;6253447;22;20015;-87
2022/07/06 13:32:00;;;;;;;3.72;0.77;;;20.90;99.90;;;;;;6229329;22;20447;-88
2022/07/06 13:34:26;;;;;;;2.15;0.70;;;20.80;99.90;;;;;;6228933;22;20095;-87
2022/07/06 13:36:52;;;;;;;3.20;1.00;;;20.80;99.90;;;;;;6228572;22;20424;-88
2022/07/06 13:39:19;;;;;;;1.20;0.70;;;20.80;99.90;;;;;;6253125;22;20017;-87
2022/07/06 13:41:45;;;;;;;1.15;0.70;;;20.70;99.90;;;;;;6228757;22;20090;-88
2022/07/06 13:44:11;;;;;;;2.33;0.80;;;20.80;99.90;;;;;;6253218;22;20340;-87
2022/07/06 13:46:40;;;;;;;2.22;0.70;;;20.70;99.90;;;;;;6279766;22;20007;-87
2022/07/06 13:49:07;;;;;;;2.83;0.73;;;20.30;99.90;;;;;;6253051;22;20089;-88
2022/07/06 13:51:33;;;;;;;3.10;0.80;;;20.10;99.90;;;;;;6253361;22;20499;-89
2022/07/06 13:53:59;;;;;;;2.03;0.85;;;19.80;99.90;;;;;;6253613;22;20076;-88
2022/07/06 13:56:26;;;;;;;4.78;1.27;;;20.00;99.90;;;;;;6228324;22;20419;-89
2022/07/06 13:58:51;;;;;;;1.02;0.70;;;19.60;99.90;;;;;;6252905;22;20067;-89
2022/07/06 14:01:19;;;;;;;3.80;1.00;;;19.50;99.90;;;;;;6229228;22;20018;-88
2022/07/06 14:03:46;;;;;;;1.98;0.88;;;19.40;99.90;;;;;;6229082;22;20339;-89
2022/07/06 14:06:12;;;;;;;2.38;0.80;;;19.50;99.90;;;;;;6228645;22;20011;-88
2022/07/06 14:08:40;;;;;;;2.65;1.13;;;19.30;99.90;;;;;;6253651;22;20029;-88